»·PEaware :: WAT348 KRNO-KSLC

WAT348 :: KRNO-KSLC

FLIGHT INFORMATION

Flight Status: Arrived
Operator:
Walker Air Transport
More flights by this operator :: More flights under this callsign
Pilot: Austin W. (7615)
Aircraft: BOEING 737-800
(B738)
More flights by this aircraft type
Origin: KRNO Reno/Tahoe Intl
United States
Destination: KSLC Salt Lake City Intl
United States
More flights between these airports :: More routes between these airports
Route: +ZEFFR6 BLKJK LLC BAM J154 BVL WAATS5
File this flight plan on PilotEdge
Remarks:
Altitude:
(Current/Filed)
35,000ft
Speed:
(Current/Filed)
450kts
Departed: 08-Nov-20 10:14 AM
Arrived: 08-Nov-20 11:20 AM
Distance/Time
Traveled:
365nm/1:05
Distance/Time
To Go:
Arrived

Flight Plot

Page will automatically refresh every two minutes.

Flight plan parsing failed; only flown route is shown


Map Options




Map Legend


Flown Route
Filed Route
Departure Airport
Arrival Airport
Navaid (VOR, NDB)
Fix

Horizontal Profiles

Position Reports

Time Latitude Longitude Heading Altitude Ground
Speed
08-Nov-20 10:00 39.504386 -119.773768 359 4425ft 0kts
08-Nov-20 10:01 39.504386 -119.773768 359 4425ft 0kts
08-Nov-20 10:02 39.504386 -119.773768 359 4425ft 0kts
08-Nov-20 10:03 39.504386 -119.773768 359 4425ft 0kts
08-Nov-20 10:04 39.504386 -119.773768 359 4425ft 0kts
08-Nov-20 10:05 39.504358 -119.773767 359 4425ft 2kts
08-Nov-20 10:06 39.503786 -119.773897 55 4425ft 2kts
08-Nov-20 10:07 39.503733 -119.774161 88 4425ft 0kts
08-Nov-20 10:08 39.503733 -119.774161 88 4425ft 0kts
08-Nov-20 10:09 39.503743 -119.773427 88 4425ft 4kts
08-Nov-20 10:10 39.504287 -119.770685 355 4425ft 13kts
08-Nov-20 10:11 39.508516 -119.770663 0 4425ft 14kts
08-Nov-20 10:12 39.512728 -119.770680 359 4425ft 19kts
08-Nov-20 10:13 39.509096 -119.769208 180 4425ft 82kts
08-Nov-20 10:14 39.461922 -119.769961 180 5645ft 199kts
08-Nov-20 10:15 39.399127 -119.768474 182 7066ft 262kts
08-Nov-20 10:16 39.322935 -119.754060 146 9341ft 292kts
08-Nov-20 10:17 39.285721 -119.661260 85 10959ft 333kts
08-Nov-20 10:18 39.329884 -119.553171 53 12886ft 353kts
08-Nov-20 10:19 39.396848 -119.457129 42 15003ft 368kts
08-Nov-20 10:20 39.473698 -119.365014 42 16972ft 384kts
08-Nov-20 10:21 39.553969 -119.268857 42 18829ft 398kts
08-Nov-20 10:22 39.636041 -119.170647 42 20754ft 403kts
08-Nov-20 10:23 39.719157 -119.070931 41 22467ft 410kts
08-Nov-20 10:24 39.803840 -118.969010 41 23944ft 418kts
08-Nov-20 10:25 39.889797 -118.865216 41 25228ft 426kts
08-Nov-20 10:26 39.977519 -118.758902 40 26411ft 434kts
08-Nov-20 10:27 40.063956 -118.647045 48 27591ft 441kts
08-Nov-20 10:28 40.133162 -118.513210 62 28543ft 451kts
08-Nov-20 10:29 40.182656 -118.360946 67 29427ft 459kts
08-Nov-20 10:30 40.227791 -118.203272 68 30426ft 461kts
08-Nov-20 10:31 40.271481 -118.045385 68 31538ft 459kts
08-Nov-20 10:32 40.314413 -117.887992 68 32572ft 456kts
08-Nov-20 10:33 40.356803 -117.731186 68 33546ft 453kts
08-Nov-20 10:34 40.398637 -117.575386 68 34421ft 451kts
08-Nov-20 10:35 40.440166 -117.419661 68 34734ft 455kts
08-Nov-20 10:36 40.481896 -117.262281 69 34733ft 452kts
08-Nov-20 10:37 40.523087 -117.105955 69 34734ft 454kts
08-Nov-20 10:38 40.559455 -116.946394 79 34737ft 456kts
08-Nov-20 10:39 40.575881 -116.780869 83 34735ft 457kts
08-Nov-20 10:40 40.587780 -116.614144 84 34735ft 458kts
08-Nov-20 10:41 40.598455 -116.446991 84 34733ft 459kts
08-Nov-20 10:42 40.608655 -116.279068 85 34733ft 459kts
08-Nov-20 10:43 40.618508 -116.111453 85 34731ft 459kts
08-Nov-20 10:44 40.628135 -115.943395 86 34704ft 461kts
08-Nov-20 10:45 40.637505 -115.774421 86 34697ft 461kts
08-Nov-20 10:46 40.646578 -115.605888 86 34700ft 460kts
08-Nov-20 10:47 40.655474 -115.436484 86 34696ft 460kts
08-Nov-20 10:48 40.664118 -115.267897 87 34697ft 461kts
08-Nov-20 10:49 40.672508 -115.099182 87 34701ft 461kts
08-Nov-20 10:50 40.680653 -114.930084 87 34707ft 463kts
08-Nov-20 10:51 40.686898 -114.760479 88 34707ft 463kts
08-Nov-20 10:52 40.693810 -114.590872 88 34708ft 464kts
08-Nov-20 10:53 40.700977 -114.420763 88 34706ft 465kts
08-Nov-20 10:54 40.708141 -114.249243 89 34183ft 475kts
08-Nov-20 10:55 40.715138 -114.077517 90 31672ft 468kts
08-Nov-20 10:57 40.721892 -113.904704 91 28958ft 475kts
08-Nov-20 10:58 40.728141 -113.729711 93 27743ft 480kts
08-Nov-20 10:59 40.726860 -113.558046 94 26652ft 443kts
08-Nov-20 11:00 40.726045 -113.398212 94 25228ft 432kts
08-Nov-20 11:01 40.725460 -113.241477 94 22802ft 420kts
08-Nov-20 11:02 40.724787 -113.089608 93 20412ft 408kts
08-Nov-20 11:03 40.723902 -112.942576 93 18069ft 395kts
08-Nov-20 11:04 40.722468 -112.801327 93 16719ft 370kts
08-Nov-20 11:05 40.720973 -112.662849 93 16716ft 377kts
08-Nov-20 11:06 40.721507 -112.525403 84 16238ft 365kts
08-Nov-20 11:07 40.742145 -112.394216 79 14076ft 363kts
08-Nov-20 11:08 40.763228 -112.264341 85 12003ft 353kts
08-Nov-20 11:09 40.754188 -112.138678 126 12010ft 340kts
08-Nov-20 11:10 40.676803 -112.082591 176 12000ft 325kts
08-Nov-20 11:11 40.587081 -112.072690 177 11932ft 306kts
08-Nov-20 11:12 40.508755 -112.063593 177 11426ft 261kts
08-Nov-20 11:13 40.452025 -112.026479 106 10209ft 250kts
08-Nov-20 11:13 40.474332 -111.965076 11 8989ft 250kts
08-Nov-20 11:15 40.555794 -111.970005 352 8601ft 246kts
08-Nov-20 11:15 40.610168 -111.976310 352 7536ft 226kts
08-Nov-20 11:17 40.680859 -111.984505 353 6122ft 201kts
08-Nov-20 11:17 40.722213 -111.989037 354 5180ft 164kts
08-Nov-20 11:18 40.766631 -111.994366 353 4456ft 157kts
08-Nov-20 11:19 40.797347 -111.997671 20 4237ft 35kts
08-Nov-20 11:20 40.797477 -111.994942 174 4237ft 10kts
08-Nov-20 11:21 40.793879 -111.994513 174 4237ft 17kts
08-Nov-20 11:22 40.791034 -111.992929 83 4237ft 13kts
08-Nov-20 11:23 40.791440 -111.987275 84 4237ft 14kts
08-Nov-20 11:24 40.790076 -111.984820 105 4237ft 18kts
08-Nov-20 11:25 40.789410 -111.981661 167 4237ft 1kts
08-Nov-20 11:26 40.789264 -111.981622 168 4237ft 0kts
08-Nov-20 11:27 40.789264 -111.981622 168 4237ft 0kts
08-Nov-20 11:28 40.789264 -111.981622 168 4237ft 0kts
08-Nov-20 11:29 40.789264 -111.981622 168 4237ft 0kts

Navigation Log

Ident Type
Flight plan parsing failed, navigation log unavailable